sensor_id;sensor_type;location;lat;lon;timestamp;P1;durP1;ratioP1;P2;durP2;ratioP2
19434;SDS011;9853;50.848;4.108;2024-02-28T00:00:50;6.63;;;3.40;;
19434;SDS011;9853;50.848;4.108;2024-02-28T00:03:05;8.02;;;3.13;;
19434;SDS011;9853;50.848;4.108;2024-02-28T00:05:34;4.93;;;2.67;;
19434;SDS011;9853;50.848;4.108;2024-02-28T00:07:52;4.80;;;2.73;;
19434;SDS011;9853;50.848;4.108;2024-02-28T00:10:10;8.73;;;2.95;;
19434;SDS011;9853;50.848;4.108;2024-02-28T00:12:14;6.23;;;3.20;;
19434;SDS011;9853;50.848;4.108;2024-02-28T00:14:16;7.17;;;2.80;;
19434;SDS011;9853;50.848;4.108;2024-02-28T00:16:20;4.67;;;2.23;;
19434;SDS011;9853;50.848;4.108;2024-02-28T00:18:30;4.00;;;2.30;;
19434;SDS011;9853;50.848;4.108;2024-02-28T00:20:56;6.67;;;2.40;;
19434;SDS011;9853;50.848;4.108;2024-02-28T00:23:14;7.83;;;3.03;;
19434;SDS011;9853;50.848;4.108;2024-02-28T00:25:16;5.00;;;2.90;;
19434;SDS011;9853;50.848;4.108;2024-02-28T00:27:23;5.93;;;2.27;;
19434;SDS011;9853;50.848;4.108;2024-02-28T00:29:30;8.90;;;2.60;;
19434;SDS011;9853;50.848;4.108;2024-02-28T00:31:32;7.03;;;2.40;;
19434;SDS011;9853;50.848;4.108;2024-02-28T00:33:38;7.23;;;2.73;;
19434;SDS011;9853;50.848;4.108;2024-02-28T00:35:49;3.90;;;2.30;;
19434;SDS011;9853;50.848;4.108;2024-02-28T00:37:58;6.20;;;2.87;;
19434;SDS011;9853;50.848;4.108;2024-02-28T00:40:04;5.43;;;3.20;;
19434;SDS011;9853;50.848;4.108;2024-02-28T00:42:10;10.07;;;2.90;;
19434;SDS011;9853;50.848;4.108;2024-02-28T00:44:29;7.17;;;3.23;;
19434;SDS011;9853;50.848;4.108;2024-02-28T00:46:32;6.70;;;2.50;;
19434;SDS011;9853;50.848;4.108;2024-02-28T00:48:41;3.93;;;2.27;;
19434;SDS011;9853;50.848;4.108;2024-02-28T00:51:07;3.93;;;2.37;;
19434;SDS011;9853;50.848;4.108;2024-02-28T00:53:11;6.73;;;3.17;;
19434;SDS011;9853;50.848;4.108;2024-02-28T00:55:16;5.93;;;2.80;;
19434;SDS011;9853;50.848;4.108;2024-02-28T00:57:23;5.90;;;3.00;;
19434;SDS011;9853;50.848;4.108;2024-02-28T00:59:31;4.43;;;2.47;;
19434;SDS011;9853;50.848;4.108;2024-02-28T01:01:39;4.23;;;2.40;;
19434;SDS011;9853;50.848;4.108;2024-02-28T01:04:03;8.87;;;3.10;;
19434;SDS011;9853;50.848;4.108;2024-02-28T01:06:09;8.93;;;2.87;;
19434;SDS011;9853;50.848;4.108;2024-02-28T01:08:39;5.43;;;2.50;;
19434;SDS011;9853;50.848;4.108;2024-02-28T01:11:10;4.17;;;2.27;;
19434;SDS011;9853;50.848;4.108;2024-02-28T01:13:24;3.97;;;2.13;;
19434;SDS011;9853;50.848;4.108;2024-02-28T01:15:50;9.67;;;2.87;;
19434;SDS011;9853;50.848;4.108;2024-02-28T01:17:53;5.53;;;2.57;;
19434;SDS011;9853;50.848;4.108;2024-02-28T01:20:07;5.60;;;3.17;;
19434;SDS011;9853;50.848;4.108;2024-02-28T01:22:24;4.53;;;2.47;;
19434;SDS011;9853;50.848;4.108;2024-02-28T01:24:33;8.00;;;3.00;;
19434;SDS011;9853;50.848;4.108;2024-02-28T01:26:43;5.87;;;3.00;;
19434;SDS011;9853;50.848;4.108;2024-02-28T01:28:51;6.57;;;2.43;;
19434;SDS011;9853;50.848;4.108;2024-02-28T01:30:57;6.80;;;3.20;;
19434;SDS011;9853;50.848;4.108;2024-02-28T01:33:38;6.63;;;2.03;;
19434;SDS011;9853;50.848;4.108;2024-02-28T01:36:02;7.50;;;2.37;;
19434;SDS011;9853;50.848;4.108;2024-02-28T01:38:08;5.83;;;2.77;;
19434;SDS011;9853;50.848;4.108;2024-02-28T01:40:20;5.83;;;3.03;;
19434;SDS011;9853;50.848;4.108;2024-02-28T01:42:22;5.83;;;2.17;;
19434;SDS011;9853;50.848;4.108;2024-02-28T01:44:34;9.10;;;3.10;;
19434;SDS011;9853;50.848;4.108;2024-02-28T01:46:50;8.47;;;3.27;;
19434;SDS011;9853;50.848;4.108;2024-02-28T01:48:58;11.47;;;3.50;;
19434;SDS011;9853;50.848;4.108;2024-02-28T01:51:11;5.67;;;2.53;;
19434;SDS011;9853;50.848;4.108;2024-02-28T01:53:20;6.30;;;3.33;;
19434;SDS011;9853;50.848;4.108;2024-02-28T01:55:25;8.53;;;3.57;;
19434;SDS011;9853;50.848;4.108;2024-02-28T01:57:30;6.87;;;3.13;;
19434;SDS011;9853;50.848;4.108;2024-02-28T01:59:34;4.80;;;2.80;;
19434;SDS011;9853;50.848;4.108;2024-02-28T02:01:42;7.50;;;3.50;;
19434;SDS011;9853;50.848;4.108;2024-02-28T02:04:07;5.87;;;3.07;;
19434;SDS011;9853;50.848;4.108;2024-02-28T02:06:41;6.33;;;2.83;;
19434;SDS011;9853;50.848;4.108;2024-02-28T02:08:50;8.33;;;3.73;;
19434;SDS011;9853;50.848;4.108;2024-02-28T02:10:59;12.90;;;3.13;;
19434;SDS011;9853;50.848;4.108;2024-02-28T02:13:13;5.17;;;2.93;;
19434;SDS011;9853;50.848;4.108;2024-02-28T02:15:25;14.90;;;4.50;;
19434;SDS011;9853;50.848;4.108;2024-02-28T02:17:45;6.57;;;3.37;;
19434;SDS011;9853;50.848;4.108;2024-02-28T02:19:46;4.80;;;2.80;;
19434;SDS011;9853;50.848;4.108;2024-02-28T02:22:00;6.53;;;2.80;;
19434;SDS011;9853;50.848;4.108;2024-02-28T02:24:27;6.43;;;2.90;;
19434;SDS011;9853;50.848;4.108;2024-02-28T02:26:32;5.93;;;2.97;;
19434;SDS011;9853;50.848;4.108;2024-02-28T02:28:36;8.10;;;3.53;;
19434;SDS011;9853;50.848;4.108;2024-02-28T02:30:40;5.40;;;3.30;;
19434;SDS011;9853;50.848;4.108;2024-02-28T02:32:54;8.60;;;4.30;;
19434;SDS011;9853;50.848;4.108;2024-02-28T02:35:06;8.13;;;3.20;;
19434;SDS011;9853;50.848;4.108;2024-02-28T02:37:25;6.80;;;3.00;;
19434;SDS011;9853;50.848;4.108;2024-02-28T02:39:35;9.83;;;3.63;;
19434;SDS011;9853;50.848;4.108;2024-02-28T02:41:40;6.87;;;3.27;;
19434;SDS011;9853;50.848;4.108;2024-02-28T02:43:50;8.67;;;3.67;;
19434;SDS011;9853;50.848;4.108;2024-02-28T02:45:53;7.07;;;3.50;;
19434;SDS011;9853;50.848;4.108;2024-02-28T02:48:01;9.03;;;3.67;;
19434;SDS011;9853;50.848;4.108;2024-02-28T02:50:27;12.73;;;4.00;;
19434;SDS011;9853;50.848;4.108;2024-02-28T02:52:50;6.23;;;3.00;;
19434;SDS011;9853;50.848;4.108;2024-02-28T02:55:09;11.20;;;3.87;;
19434;SDS011;9853;50.848;4.108;2024-02-28T02:57:17;8.20;;;3.87;;
19434;SDS011;9853;50.848;4.108;2024-02-28T02:59:34;7.83;;;4.00;;
19434;SDS011;9853;50.848;4.108;2024-02-28T03:01:45;4.53;;;2.53;;
19434;SDS011;9853;50.848;4.108;2024-02-28T03:03:59;7.03;;;4.10;;
19434;SDS011;9853;50.848;4.108;2024-02-28T03:06:23;10.90;;;3.90;;
19434;SDS011;9853;50.848;4.108;2024-02-28T03:08:36;12.50;;;4.30;;
19434;SDS011;9853;50.848;4.108;2024-02-28T03:10:51;9.47;;;3.17;;
19434;SDS011;9853;50.848;4.108;2024-02-28T03:13:10;7.00;;;3.47;;
19434;SDS011;9853;50.848;4.108;2024-02-28T03:15:29;7.93;;;4.07;;
19434;SDS011;9853;50.848;4.108;2024-02-28T03:17:36;7.37;;;3.50;;
19434;SDS011;9853;50.848;4.108;2024-02-28T03:19:48;6.93;;;3.60;;
19434;SDS011;9853;50.848;4.108;2024-02-28T03:21:58;6.70;;;3.33;;
19434;SDS011;9853;50.848;4.108;2024-02-28T03:23:59;5.53;;;3.20;;
19434;SDS011;9853;50.848;4.108;2024-02-28T03:26:15;6.63;;;4.03;;
19434;SDS011;9853;50.848;4.108;2024-02-28T03:28:27;12.00;;;4.17;;
19434;SDS011;9853;50.848;4.108;2024-02-28T03:30:31;7.50;;;3.43;;
19434;SDS011;9853;50.848;4.108;2024-02-28T03:32:34;4.33;;;2.60;;
19434;SDS011;9853;50.848;4.108;2024-02-28T03:34:56;7.97;;;2.93;;
19434;SDS011;9853;50.848;4.108;2024-02-28T03:37:02;6.30;;;3.80;;
19434;SDS011;9853;50.848;4.108;2024-02-28T03:39:09;10.23;;;3.17;;
19434;SDS011;9853;50.848;4.108;2024-02-28T03:41:20;13.30;;;3.40;;
19434;SDS011;9853;50.848;4.108;2024-02-28T03:43:27;6.93;;;3.53;;
19434;SDS011;9853;50.848;4.108;2024-02-28T03:45:41;16.47;;;3.07;;
19434;SDS011;9853;50.848;4.108;2024-02-28T03:48:08;11.23;;;4.70;;
19434;SDS011;9853;50.848;4.108;2024-02-28T03:50:17;11.33;;;4.40;;
19434;SDS011;9853;50.848;4.108;2024-02-28T03:52:18;10.57;;;4.20;;
19434;SDS011;9853;50.848;4.108;2024-02-28T03:54:36;10.27;;;3.73;;
19434;SDS011;9853;50.848;4.108;2024-02-28T03:56:57;10.97;;;3.70;;
19434;SDS011;9853;50.848;4.108;2024-02-28T03:59:09;9.80;;;4.00;;
19434;SDS011;9853;50.848;4.108;2024-02-28T04:01:16;9.73;;;3.43;;
19434;SDS011;9853;50.848;4.108;2024-02-28T04:03:19;8.83;;;3.70;;
19434;SDS011;9853;50.848;4.108;2024-02-28T04:05:22;7.13;;;3.53;;
19434;SDS011;9853;50.848;4.108;2024-02-28T04:07:25;9.27;;;4.37;;
19434;SDS011;9853;50.848;4.108;2024-02-28T04:09:29;9.23;;;4.60;;
19434;SDS011;9853;50.848;4.108;2024-02-28T04:11:37;6.50;;;3.60;;
19434;SDS011;9853;50.848;4.108;2024-02-28T04:14:02;7.17;;;3.33;;
19434;SDS011;9853;50.848;4.108;2024-02-28T04:16:07;7.63;;;3.77;;
19434;SDS011;9853;50.848;4.108;2024-02-28T04:18:35;16.80;;;3.20;;
19434;SDS011;9853;50.848;4.108;2024-02-28T04:20:49;10.07;;;3.23;;
19434;SDS011;9853;50.848;4.108;2024-02-28T04:22:50;9.43;;;3.57;;
19434;SDS011;9853;50.848;4.108;2024-02-28T04:25:25;11.83;;;4.33;;
19434;SDS011;9853;50.848;4.108;2024-02-28T04:27:47;6.73;;;4.17;;
19434;SDS011;9853;50.848;4.108;2024-02-28T04:29:52;5.27;;;3.17;;
19434;SDS011;9853;50.848;4.108;2024-02-28T04:32:05;12.33;;;3.23;;
19434;SDS011;9853;50.848;4.108;2024-02-28T04:34:11;12.87;;;4.50;;
19434;SDS011;9853;50.848;4.108;2024-02-28T04:36:31;8.90;;;3.53;;
19434;SDS011;9853;50.848;4.108;2024-02-28T04:38:45;11.17;;;4.23;;
19434;SDS011;9853;50.848;4.108;2024-02-28T04:41:08;7.10;;;4.17;;
19434;SDS011;9853;50.848;4.108;2024-02-28T04:43:25;8.67;;;4.47;;
19434;SDS011;9853;50.848;4.108;2024-02-28T04:45:58;11.50;;;5.13;;
19434;SDS011;9853;50.848;4.108;2024-02-28T04:48:25;11.53;;;3.70;;
19434;SDS011;9853;50.848;4.108;2024-02-28T04:50:31;8.77;;;4.57;;
19434;SDS011;9853;50.848;4.108;2024-02-28T04:52:52;8.93;;;3.97;;
19434;SDS011;9853;50.848;4.108;2024-02-28T04:54:59;10.13;;;3.33;;
19434;SDS011;9853;50.848;4.108;2024-02-28T04:57:03;7.43;;;3.53;;
19434;SDS011;9853;50.848;4.108;2024-02-28T04:59:25;7.90;;;3.87;;
19434;SDS011;9853;50.848;4.108;2024-02-28T05:01:31;6.80;;;3.57;;
19434;SDS011;9853;50.848;4.108;2024-02-28T05:03:41;5.83;;;2.93;;
19434;SDS011;9853;50.848;4.108;2024-02-28T05:05:43;11.93;;;4.87;;
19434;SDS011;9853;50.848;4.108;2024-02-28T05:08:11;8.00;;;4.13;;
19434;SDS011;9853;50.848;4.108;2024-02-28T05:10:28;11.20;;;4.40;;
19434;SDS011;9853;50.848;4.108;2024-02-28T05:12:36;12.07;;;4.03;;
19434;SDS011;9853;50.848;4.108;2024-02-28T05:14:52;9.30;;;4.20;;
19434;SDS011;9853;50.848;4.108;2024-02-28T05:17:13;8.77;;;3.60;;
19434;SDS011;9853;50.848;4.108;2024-02-28T05:19:23;5.97;;;2.33;;
19434;SDS011;9853;50.848;4.108;2024-02-28T05:21:27;6.10;;;3.27;;
19434;SDS011;9853;50.848;4.108;2024-02-28T05:23:33;10.60;;;5.03;;
19434;SDS011;9853;50.848;4.108;2024-02-28T05:25:38;14.80;;;4.13;;
19434;SDS011;9853;50.848;4.108;2024-02-28T05:27:44;9.07;;;4.33;;
19434;SDS011;9853;50.848;4.108;2024-02-28T05:29:50;12.17;;;4.93;;
19434;SDS011;9853;50.848;4.108;2024-02-28T05:31:55;8.87;;;4.60;;
19434;SDS011;9853;50.848;4.108;2024-02-28T13:00:35;7.15;;;2.50;;
19434;SDS011;9853;50.848;4.108;2024-02-28T13:03:04;3.42;;;1.70;;
19434;SDS011;9853;50.848;4.108;2024-02-28T13:07:57;2.80;;;1.77;;
19434;SDS011;9853;50.848;4.108;2024-02-28T13:10:02;4.75;;;1.98;;
19434;SDS011;9853;50.848;4.108;2024-02-28T13:12:33;5.28;;;2.00;;
19434;SDS011;9853;50.848;4.108;2024-02-28T13:14:34;5.47;;;3.05;;
19434;SDS011;9853;50.848;4.108;2024-02-28T13:16:52;9.48;;;3.15;;
19434;SDS011;9853;50.848;4.108;2024-02-28T13:18:59;3.20;;;1.88;;
19434;SDS011;9853;50.848;4.108;2024-02-28T13:21:11;10.48;;;3.70;;
19434;SDS011;9853;50.848;4.108;2024-02-28T13:23:26;3.35;;;1.35;;
19434;SDS011;9853;50.848;4.108;2024-02-28T13:25:50;3.30;;;1.77;;
19434;SDS011;9853;50.848;4.108;2024-02-28T13:28:03;3.80;;;1.70;;
19434;SDS011;9853;50.848;4.108;2024-02-28T13:30:10;2.13;;;1.33;;
19434;SDS011;9853;50.848;4.108;2024-02-28T13:32:21;7.95;;;2.05;;
19434;SDS011;9853;50.848;4.108;2024-02-28T13:34:44;3.35;;;1.90;;
19434;SDS011;9853;50.848;4.108;2024-02-28T13:37:08;1.65;;;0.90;;
19434;SDS011;9853;50.848;4.108;2024-02-28T13:39:33;3.85;;;1.85;;
19434;SDS011;9853;50.848;4.108;2024-02-28T13:41:35;3.03;;;1.50;;
19434;SDS011;9853;50.848;4.108;2024-02-28T13:43:47;2.97;;;1.10;;
19434;SDS011;9853;50.848;4.108;2024-02-28T13:45:58;3.38;;;1.15;;
19434;SDS011;9853;50.848;4.108;2024-02-28T13:48:22;3.13;;;1.50;;
19434;SDS011;9853;50.848;4.108;2024-02-28T13:50:41;8.43;;;1.58;;
19434;SDS011;9853;50.848;4.108;2024-02-28T13:52:47;3.08;;;1.40;;
19434;SDS011;9853;50.848;4.108;2024-02-28T13:55:02;2.67;;;1.25;;
19434;SDS011;9853;50.848;4.108;2024-02-28T13:57:34;1.50;;;1.02;;
19434;SDS011;9853;50.848;4.108;2024-02-28T13:59:55;1.95;;;1.00;;
19434;SDS011;9853;50.848;4.108;2024-02-28T14:04:59;6.00;;;0.85;;
19434;SDS011;9853;50.848;4.108;2024-02-28T14:07:27;8.68;;;1.25;;
19434;SDS011;9853;50.848;4.108;2024-02-28T14:09:38;2.38;;;1.05;;
19434;SDS011;9853;50.848;4.108;2024-02-28T14:12:05;2.47;;;1.20;;
19434;SDS011;9853;50.848;4.108;2024-02-28T14:14:10;2.10;;;0.90;;
19434;SDS011;9853;50.848;4.108;2024-02-28T14:16:21;1.42;;;0.90;;
19434;SDS011;9853;50.848;4.108;2024-02-28T14:21:00;1.17;;;0.98;;
19434;SDS011;9853;50.848;4.108;2024-02-28T14:23:28;0.85;;;0.47;;
19434;SDS011;9853;50.848;4.108;2024-02-28T14:28:27;0.70;;;0.52;;
19434;SDS011;9853;50.848;4.108;2024-02-28T14:30:39;0.77;;;0.65;;
19434;SDS011;9853;50.848;4.108;2024-02-28T14:33:14;1.33;;;0.80;;
19434;SDS011;9853;50.848;4.108;2024-02-28T14:36:00;1.23;;;0.60;;
19434;SDS011;9853;50.848;4.108;2024-02-28T14:38:05;1.77;;;0.68;;
19434;SDS011;9853;50.848;4.108;2024-02-28T14:40:31;3.45;;;1.10;;
19434;SDS011;9853;50.848;4.108;2024-02-28T14:43:21;0.93;;;0.60;;
19434;SDS011;9853;50.848;4.108;2024-02-28T14:45:42;1.13;;;0.50;;
19434;SDS011;9853;50.848;4.108;2024-02-28T14:51:06;0.93;;;0.70;;
19434;SDS011;9853;50.848;4.108;2024-02-28T14:53:32;1.73;;;0.90;;
19434;SDS011;9853;50.848;4.108;2024-02-28T14:55:38;2.38;;;0.52;;
19434;SDS011;9853;50.848;4.108;2024-02-28T14:57:56;4.05;;;0.60;;
19434;SDS011;9853;50.848;4.108;2024-02-28T15:00:20;7.32;;;1.73;;
19434;SDS011;9853;50.848;4.108;2024-02-28T15:02:25;1.02;;;0.40;;
19434;SDS011;9853;50.848;4.108;2024-02-28T15:04:36;1.45;;;0.50;;
19434;SDS011;9853;50.848;4.108;2024-02-28T15:06:46;1.65;;;0.90;;
19434;SDS011;9853;50.848;4.108;2024-02-28T15:08:55;1.55;;;0.65;;
19434;SDS011;9853;50.848;4.108;2024-02-28T15:11:11;1.27;;;0.70;;
19434;SDS011;9853;50.848;4.108;2024-02-28T15:13:47;1.85;;;0.85;;
19434;SDS011;9853;50.848;4.108;2024-02-28T15:15:55;2.00;;;0.70;;
19434;SDS011;9853;50.848;4.108;2024-02-28T15:18:36;0.65;;;0.52;;
19434;SDS011;9853;50.848;4.108;2024-02-28T15:21:13;2.03;;;0.98;;
19434;SDS011;9853;50.848;4.108;2024-02-28T15:23:24;1.45;;;0.77;;
19434;SDS011;9853;50.848;4.108;2024-02-28T15:25:39;5.25;;;0.68;;
19434;SDS011;9853;50.848;4.108;2024-02-28T15:27:50;1.23;;;0.80;;
19434;SDS011;9853;50.848;4.108;2024-02-28T15:30:17;4.95;;;0.82;;
19434;SDS011;9853;50.848;4.108;2024-02-28T15:32:22;0.70;;;0.60;;
19434;SDS011;9853;50.848;4.108;2024-02-28T15:34:33;1.92;;;0.77;;
19434;SDS011;9853;50.848;4.108;2024-02-28T15:36:36;1.30;;;0.82;;
19434;SDS011;9853;50.848;4.108;2024-02-28T15:38:46;2.33;;;0.90;;
19434;SDS011;9853;50.848;4.108;2024-02-28T15:41:10;1.60;;;0.70;;
19434;SDS011;9853;50.848;4.108;2024-02-28T15:43:27;5.85;;;1.00;;
19434;SDS011;9853;50.848;4.108;2024-02-28T15:45:47;1.33;;;0.90;;
19434;SDS011;9853;50.848;4.108;2024-02-28T15:48:02;0.57;;;0.55;;
19434;SDS011;9853;50.848;4.108;2024-02-28T15:50:05;1.40;;;0.85;;
19434;SDS011;9853;50.848;4.108;2024-02-28T15:52:33;1.38;;;1.08;;
19434;SDS011;9853;50.848;4.108;2024-02-28T15:54:37;1.50;;;0.95;;
19434;SDS011;9853;50.848;4.108;2024-02-28T15:56:44;2.97;;;1.02;;
19434;SDS011;9853;50.848;4.108;2024-02-28T15:58:56;2.40;;;1.20;;
19434;SDS011;9853;50.848;4.108;2024-02-28T16:01:20;1.63;;;0.93;;
19434;SDS011;9853;50.848;4.108;2024-02-28T16:03:28;1.52;;;1.20;;
19434;SDS011;9853;50.848;4.108;2024-02-28T16:06:01;1.65;;;0.90;;
19434;SDS011;9853;50.848;4.108;2024-02-28T16:08:07;1.77;;;1.20;;
19434;SDS011;9853;50.848;4.108;2024-02-28T16:10:22;2.58;;;1.20;;
19434;SDS011;9853;50.848;4.108;2024-02-28T16:12:26;4.03;;;1.33;;
19434;SDS011;9853;50.848;4.108;2024-02-28T16:14:28;1.70;;;0.65;;
19434;SDS011;9853;50.848;4.108;2024-02-28T16:16:32;2.15;;;0.85;;
19434;SDS011;9853;50.848;4.108;2024-02-28T16:18:33;0.75;;;0.68;;
19434;SDS011;9853;50.848;4.108;2024-02-28T16:20:50;5.03;;;1.10;;
19434;SDS011;9853;50.848;4.108;2024-02-28T16:22:52;5.10;;;0.90;;
19434;SDS011;9853;50.848;4.108;2024-02-28T16:25:13;0.95;;;0.75;;
19434;SDS011;9853;50.848;4.108;2024-02-28T16:27:43;1.52;;;0.90;;
19434;SDS011;9853;50.848;4.108;2024-02-28T16:30:04;2.60;;;0.77;;
19434;SDS011;9853;50.848;4.108;2024-02-28T16:32:19;1.88;;;0.75;;
19434;SDS011;9853;50.848;4.108;2024-02-28T16:34:32;2.67;;;1.20;;
19434;SDS011;9853;50.848;4.108;2024-02-28T16:36:36;4.05;;;1.50;;
19434;SDS011;9853;50.848;4.108;2024-02-28T16:38:42;2.63;;;1.05;;
19434;SDS011;9853;50.848;4.108;2024-02-28T16:40:44;3.38;;;1.38;;
19434;SDS011;9853;50.848;4.108;2024-02-28T16:42:49;5.25;;;1.83;;
19434;SDS011;9853;50.848;4.108;2024-02-28T16:44:59;11.10;;;2.05;;
19434;SDS011;9853;50.848;4.108;2024-02-28T16:47:00;4.25;;;2.03;;
19434;SDS011;9853;50.848;4.108;2024-02-28T16:49:13;8.07;;;2.28;;
19434;SDS011;9853;50.848;4.108;2024-02-28T16:51:22;6.00;;;2.67;;
19434;SDS011;9853;50.848;4.108;2024-02-28T16:53:52;7.93;;;2.60;;
19434;SDS011;9853;50.848;4.108;2024-02-28T16:55:56;9.77;;;2.88;;
19434;SDS011;9853;50.848;4.108;2024-02-28T16:58:02;12.88;;;4.13;;
19434;SDS011;9853;50.848;4.108;2024-02-28T17:00:22;9.18;;;2.67;;
19434;SDS011;9853;50.848;4.108;2024-02-28T17:02:29;16.83;;;4.88;;
19434;SDS011;9853;50.848;4.108;2024-02-28T17:04:46;14.27;;;3.35;;
19434;SDS011;9853;50.848;4.108;2024-02-28T17:06:51;14.68;;;3.72;;
19434;SDS011;9853;50.848;4.108;2024-02-28T17:09:21;10.50;;;3.67;;
19434;SDS011;9853;50.848;4.108;2024-02-28T17:11:26;7.32;;;3.30;;
19434;SDS011;9853;50.848;4.108;2024-02-28T17:13:32;5.78;;;2.30;;
19434;SDS011;9853;50.848;4.108;2024-02-28T17:15:53;7.90;;;2.63;;
19434;SDS011;9853;50.848;4.108;2024-02-28T17:18:02;5.00;;;1.92;;
19434;SDS011;9853;50.848;4.108;2024-02-28T17:20:10;10.40;;;2.60;;
19434;SDS011;9853;50.848;4.108;2024-02-28T17:22:13;7.93;;;2.83;;
19434;SDS011;9853;50.848;4.108;2024-02-28T17:24:16;4.97;;;2.17;;
19434;SDS011;9853;50.848;4.108;2024-02-28T17:26:21;7.65;;;1.45;;
19434;SDS011;9853;50.848;4.108;2024-02-28T17:28:33;9.00;;;2.88;;
19434;SDS011;9853;50.848;4.108;2024-02-28T17:31:11;4.22;;;1.92;;
19434;SDS011;9853;50.848;4.108;2024-02-28T17:33:20;3.78;;;2.03;;
19434;SDS011;9853;50.848;4.108;2024-02-28T17:35:27;3.58;;;2.10;;
19434;SDS011;9853;50.848;4.108;2024-02-28T17:37:48;3.55;;;1.80;;
19434;SDS011;9853;50.848;4.108;2024-02-28T17:39:52;5.72;;;2.40;;
19434;SDS011;9853;50.848;4.108;2024-02-28T17:41:58;8.65;;;1.73;;
19434;SDS011;9853;50.848;4.108;2024-02-28T17:44:09;3.00;;;2.13;;
19434;SDS011;9853;50.848;4.108;2024-02-28T17:46:11;4.75;;;1.80;;
19434;SDS011;9853;50.848;4.108;2024-02-28T17:48:15;4.63;;;2.95;;
19434;SDS011;9853;50.848;4.108;2024-02-28T17:50:21;4.05;;;1.27;;
19434;SDS011;9853;50.848;4.108;2024-02-28T17:52:24;4.22;;;1.85;;
19434;SDS011;9853;50.848;4.108;2024-02-28T17:54:36;2.60;;;1.52;;
19434;SDS011;9853;50.848;4.108;2024-02-28T17:56:45;2.55;;;1.75;;
19434;SDS011;9853;50.848;4.108;2024-02-28T17:59:06;5.88;;;1.88;;
19434;SDS011;9853;50.848;4.108;2024-02-28T18:01:17;6.55;;;1.75;;
19434;SDS011;9853;50.848;4.108;2024-02-28T18:03:40;3.13;;;1.48;;
19434;SDS011;9853;50.848;4.108;2024-02-28T18:05:59;5.65;;;2.47;;
19434;SDS011;9853;50.848;4.108;2024-02-28T18:08:38;7.32;;;3.47;;
19434;SDS011;9853;50.848;4.108;2024-02-28T18:10:42;3.58;;;2.35;;
19434;SDS011;9853;50.848;4.108;2024-02-28T18:12:51;2.38;;;1.60;;
19434;SDS011;9853;50.848;4.108;2024-02-28T18:15:12;4.93;;;2.70;;
19434;SDS011;9853;50.848;4.108;2024-02-28T18:17:19;6.88;;;3.15;;
19434;SDS011;9853;50.848;4.108;2024-02-28T18:19:44;5.70;;;2.50;;
19434;SDS011;9853;50.848;4.108;2024-02-28T18:21:52;9.90;;;2.55;;
19434;SDS011;9853;50.848;4.108;2024-02-28T18:24:08;9.27;;;2.63;;
19434;SDS011;9853;50.848;4.108;2024-02-28T18:26:10;5.53;;;2.20;;
19434;SDS011;9853;50.848;4.108;2024-02-28T18:28:28;9.32;;;2.67;;
19434;SDS011;9853;50.848;4.108;2024-02-28T18:30:38;4.57;;;1.80;;
19434;SDS011;9853;50.848;4.108;2024-02-28T18:32:44;4.57;;;2.40;;
19434;SDS011;9853;50.848;4.108;2024-02-28T18:35:06;10.07;;;2.33;;
19434;SDS011;9853;50.848;4.108;2024-02-28T18:37:41;5.75;;;2.65;;
19434;SDS011;9853;50.848;4.108;2024-02-28T18:39:47;6.53;;;3.10;;
19434;SDS011;9853;50.848;4.108;2024-02-28T18:41:51;7.32;;;2.35;;
19434;SDS011;9853;50.848;4.108;2024-02-28T18:44:04;5.25;;;2.67;;
19434;SDS011;9853;50.848;4.108;2024-02-28T18:46:14;4.55;;;2.85;;
19434;SDS011;9853;50.848;4.108;2024-02-28T18:48:25;10.70;;;3.60;;
19434;SDS011;9853;50.848;4.108;2024-02-28T18:50:33;4.97;;;2.60;;
19434;SDS011;9853;50.848;4.108;2024-02-28T18:52:38;8.93;;;2.80;;
19434;SDS011;9853;50.848;4.108;2024-02-28T18:54:48;7.72;;;3.58;;
19434;SDS011;9853;50.848;4.108;2024-02-28T18:57:01;8.90;;;3.05;;
19434;SDS011;9853;50.848;4.108;2024-02-28T18:59:12;4.35;;;2.65;;
19434;SDS011;9853;50.848;4.108;2024-02-28T19:01:21;7.05;;;2.63;;
19434;SDS011;9853;50.848;4.108;2024-02-28T19:03:24;7.15;;;3.95;;
19434;SDS011;9853;50.848;4.108;2024-02-28T19:05:34;7.00;;;2.90;;
19434;SDS011;9853;50.848;4.108;2024-02-28T19:07:39;7.43;;;3.60;;
19434;SDS011;9853;50.848;4.108;2024-02-28T19:10:00;7.05;;;4.63;;
19434;SDS011;9853;50.848;4.108;2024-02-28T19:12:04;8.93;;;3.15;;
19434;SDS011;9853;50.848;4.108;2024-02-28T19:14:19;14.50;;;3.95;;
19434;SDS011;9853;50.848;4.108;2024-02-28T19:16:29;13.73;;;3.70;;
19434;SDS011;9853;50.848;4.108;2024-02-28T19:19:28;17.08;;;4.45;;
19434;SDS011;9853;50.848;4.108;2024-02-28T19:21:38;7.53;;;3.72;;
19434;SDS011;9853;50.848;4.108;2024-02-28T19:23:53;14.70;;;4.32;;
19434;SDS011;9853;50.848;4.108;2024-02-28T19:26:17;9.32;;;3.40;;
19434;SDS011;9853;50.848;4.108;2024-02-28T19:28:21;14.38;;;5.28;;
19434;SDS011;9853;50.848;4.108;2024-02-28T19:30:36;13.50;;;4.45;;
19434;SDS011;9853;50.848;4.108;2024-02-28T19:32:42;14.57;;;4.70;;
19434;SDS011;9853;50.848;4.108;2024-02-28T19:34:50;8.57;;;3.45;;
19434;SDS011;9853;50.848;4.108;2024-02-28T19:37:08;7.75;;;3.03;;
19434;SDS011;9853;50.848;4.108;2024-02-28T19:39:10;9.40;;;3.97;;
19434;SDS011;9853;50.848;4.108;2024-02-28T19:41:19;10.80;;;3.83;;
19434;SDS011;9853;50.848;4.108;2024-02-28T19:43:22;7.88;;;3.35;;
19434;SDS011;9853;50.848;4.108;2024-02-28T19:45:38;10.93;;;4.70;;
19434;SDS011;9853;50.848;4.108;2024-02-28T19:48:07;7.87;;;3.60;;
19434;SDS011;9853;50.848;4.108;2024-02-28T19:50:13;6.17;;;2.93;;
19434;SDS011;9853;50.848;4.108;2024-02-28T19:52:25;10.07;;;4.50;;
19434;SDS011;9853;50.848;4.108;2024-02-28T19:55:01;10.50;;;3.67;;
19434;SDS011;9853;50.848;4.108;2024-02-28T19:57:27;9.95;;;5.07;;
19434;SDS011;9853;50.848;4.108;2024-02-28T19:59:48;7.72;;;3.28;;
19434;SDS011;9853;50.848;4.108;2024-02-28T20:02:12;8.77;;;3.58;;
19434;SDS011;9853;50.848;4.108;2024-02-28T20:04:22;11.52;;;4.88;;
19434;SDS011;9853;50.848;4.108;2024-02-28T20:06:28;8.90;;;3.70;;
19434;SDS011;9853;50.848;4.108;2024-02-28T20:08:56;5.57;;;2.97;;
19434;SDS011;9853;50.848;4.108;2024-02-28T20:11:02;15.23;;;4.40;;
19434;SDS011;9853;50.848;4.108;2024-02-28T20:13:09;8.87;;;3.10;;
19434;SDS011;9853;50.848;4.108;2024-02-28T20:15:31;14.50;;;4.60;;
19434;SDS011;9853;50.848;4.108;2024-02-28T20:17:38;13.45;;;4.78;;
19434;SDS011;9853;50.848;4.108;2024-02-28T20:19:47;8.77;;;3.85;;
19434;SDS011;9853;50.848;4.108;2024-02-28T20:22:36;14.98;;;3.65;;
19434;SDS011;9853;50.848;4.108;2024-02-28T20:24:49;12.13;;;4.55;;
19434;SDS011;9853;50.848;4.108;2024-02-28T20:26:53;12.67;;;4.17;;
19434;SDS011;9853;50.848;4.108;2024-02-28T20:29:02;10.10;;;3.93;;
19434;SDS011;9853;50.848;4.108;2024-02-28T20:31:10;15.40;;;4.68;;
19434;SDS011;9853;50.848;4.108;2024-02-28T20:33:36;12.32;;;4.80;;
19434;SDS011;9853;50.848;4.108;2024-02-28T20:35:41;12.98;;;5.22;;
19434;SDS011;9853;50.848;4.108;2024-02-28T20:37:59;13.93;;;4.78;;
19434;SDS011;9853;50.848;4.108;2024-02-28T20:40:05;10.10;;;4.23;;
19434;SDS011;9853;50.848;4.108;2024-02-28T20:42:15;16.90;;;4.70;;
19434;SDS011;9853;50.848;4.108;2024-02-28T20:44:31;16.40;;;6.30;;
19434;SDS011;9853;50.848;4.108;2024-02-28T20:46:50;10.73;;;5.73;;
19434;SDS011;9853;50.848;4.108;2024-02-28T20:48:58;10.40;;;5.00;;
19434;SDS011;9853;50.848;4.108;2024-02-28T20:50:59;17.00;;;5.03;;
19434;SDS011;9853;50.848;4.108;2024-02-28T20:53:18;17.93;;;5.60;;
19434;SDS011;9853;50.848;4.108;2024-02-28T20:55:32;20.30;;;4.60;;
19434;SDS011;9853;50.848;4.108;2024-02-28T20:57:42;13.70;;;4.13;;
19434;SDS011;9853;50.848;4.108;2024-02-28T20:59:54;17.87;;;6.03;;
19434;SDS011;9853;50.848;4.108;2024-02-28T21:02:10;13.38;;;4.93;;
19434;SDS011;9853;50.848;4.108;2024-02-28T21:04:19;10.30;;;4.63;;
19434;SDS011;9853;50.848;4.108;2024-02-28T21:06:48;19.20;;;5.93;;
19434;SDS011;9853;50.848;4.108;2024-02-28T21:08:53;17.83;;;5.10;;
19434;SDS011;9853;50.848;4.108;2024-02-28T21:11:02;6.80;;;4.40;;
19434;SDS011;9853;50.848;4.108;2024-02-28T21:13:04;13.02;;;5.03;;